Terminal Aerodrome Forecast
Issued by NWS

Home | Current Version | Previous Version | Text Only | Print | Product List | Glossary On
Versions: 1 2 3 4 5 6 7 8 9 10 11 12 13 14 15 16 17 18 19 20 21 22 23 24
290
FTUS42 TJSJ 151120
TAFJMZ
TAF
TJMZ 151120Z 1512/1612 07005KT P6SM FEW030
     FM151600 VRB09G22KT P6SM VCTS SCT025CB BKN035
     FM152350 07006KT P6SM FEW025 SCT060
     AMD NOT SKED=

USA.gov is the U.S. government's official web portal to all federal, state and local government web resources and services.